Time;durP1;ratioP1;P1;durP2;ratioP2;P2;SDS_P1;SDS_P2;PMS_P1;PMS_P2;Temp;Humidity;BMP_temperature;BMP_pressure;BME280_temperature;BME280_humidity;BME280_pressure;Samples;Min_cycle;Max_cycle;Signal;HPM_P1;HPM_P2
2023/08/26 00:00:07;;;;;;;9.20;6.00;;;19.10;99.90;;;;;;4950119;28;20020;-50
2023/08/26 00:02:33;;;;;;;7.57;5.97;;;19.10;99.90;;;;;;4949301;28;20032;-49
2023/08/26 00:04:58;;;;;;;13.38;6.28;;;19.00;99.90;;;;;;4949609;28;20023;-50
2023/08/26 00:07:24;;;;;;;10.18;6.53;;;19.00;99.90;;;;;;4949316;28;20396;-50
2023/08/26 00:09:49;;;;;;;10.73;6.95;;;19.00;99.90;;;;;;4949765;28;20024;-51
2023/08/26 00:12:15;;;;;;;9.63;7.22;;;19.00;99.90;;;;;;4949737;29;20027;-51
2023/08/26 00:14:40;;;;;;;10.73;6.47;;;19.00;99.90;;;;;;4949505;29;20239;-49
2023/08/26 00:17:06;;;;;;;9.57;6.28;;;19.00;99.90;;;;;;4949386;28;20035;-49
2023/08/26 00:19:32;;;;;;;8.55;6.18;;;19.00;99.90;;;;;;4949166;29;20369;-50
2023/08/26 00:21:58;;;;;;;8.00;6.40;;;19.00;99.90;;;;;;4949587;28;20034;-50
2023/08/26 00:24:23;;;;;;;8.45;6.45;;;18.90;99.90;;;;;;4945709;28;20046;-52
2023/08/26 00:26:49;;;;;;;13.02;6.50;;;18.90;99.90;;;;;;4940658;29;20031;-50
2023/08/26 00:29:14;;;;;;;10.05;6.70;;;18.90;99.90;;;;;;4940190;29;20016;-50
2023/08/26 00:31:40;;;;;;;9.05;5.70;;;19.00;99.90;;;;;;4940835;29;20362;-49
2023/08/26 00:34:05;;;;;;;6.95;5.93;;;18.90;99.90;;;;;;4943516;29;20484;-51
2023/08/26 00:36:31;;;;;;;7.15;5.63;;;19.00;99.90;;;;;;4949228;28;20035;-49
2023/08/26 00:38:57;;;;;;;7.38;5.72;;;19.00;99.90;;;;;;4949066;28;20077;-50
2023/08/26 00:41:23;;;;;;;9.10;5.90;;;19.00;99.90;;;;;;4945220;28;20540;-48
2023/08/26 00:43:48;;;;;;;8.15;6.18;;;19.00;99.90;;;;;;4949163;29;20019;-51
2023/08/26 00:46:14;;;;;;;8.18;5.53;;;19.00;99.90;;;;;;4949059;28;20199;-50
2023/08/26 00:48:40;;;;;;;6.15;5.15;;;19.00;99.90;;;;;;4948759;28;20384;-49
2023/08/26 00:51:06;;;;;;;7.88;5.00;;;19.00;99.90;;;;;;4945032;28;20016;-51
2023/08/26 00:53:32;;;;;;;8.27;5.60;;;19.00;99.90;;;;;;4947448;29;20357;-50
2023/08/26 00:55:59;;;;;;;5.82;5.22;;;19.00;99.90;;;;;;4949610;29;20038;-51
2023/08/26 00:58:25;;;;;;;13.93;6.15;;;19.00;99.90;;;;;;4948632;29;20019;-51
2023/08/26 01:00:51;;;;;;;7.55;6.32;;;19.00;99.90;;;;;;4948980;28;20092;-50
2023/08/26 01:03:17;;;;;;;11.13;5.93;;;19.00;99.90;;;;;;4949336;28;20039;-51
2023/08/26 01:05:42;;;;;;;6.45;4.78;;;19.00;99.90;;;;;;4949157;28;20028;-51
2023/08/26 01:08:08;;;;;;;8.23;6.15;;;18.90;99.90;;;;;;4947637;29;20055;-48
2023/08/26 01:10:43;;;;;;;7.80;5.65;;;18.90;99.90;;;;;;4946557;28;20039;-50
2023/08/26 01:13:14;;;;;;;7.15;5.88;;;18.90;99.90;;;;;;4949102;28;20111;-49
2023/08/26 01:15:44;;;;;;;10.60;6.40;;;18.90;99.90;;;;;;4962434;28;20042;-49
2023/08/26 01:18:13;;;;;;;9.93;6.30;;;18.90;99.90;;;;;;4948378;28;20024;-49
2023/08/26 01:20:43;;;;;;;11.43;6.13;;;18.90;99.90;;;;;;4948565;28;20031;-51
2023/08/26 01:23:41;;;;;;;7.97;5.82;;;18.90;99.90;;;;;;4949157;29;20118;-51
2023/08/26 01:26:07;;;;;;;10.38;6.60;;;18.90;99.90;;;;;;4955212;28;20521;-51
2023/08/26 01:28:32;;;;;;;9.77;5.97;;;18.90;99.90;;;;;;4943530;28;20050;-51
2023/08/26 01:31:01;;;;;;;6.38;5.43;;;18.90;99.90;;;;;;4948704;28;20023;-52
2023/08/26 01:33:50;;;;;;;7.28;5.85;;;18.90;99.90;;;;;;4931829;28;20024;-52
2023/08/26 01:36:21;;;;;;;10.23;6.30;;;18.90;99.90;;;;;;4929075;28;20083;-52
2023/08/26 01:38:48;;;;;;;8.95;5.82;;;18.90;99.90;;;;;;4940401;29;20023;-52
2023/08/26 01:41:18;;;;;;;11.10;6.53;;;18.90;99.90;;;;;;4948673;29;20023;-52
2023/08/26 01:43:44;;;;;;;7.32;6.00;;;18.90;99.90;;;;;;4947072;28;20054;-52
2023/08/26 01:46:10;;;;;;;7.85;6.45;;;18.90;99.90;;;;;;4948229;29;20396;-51
2023/08/26 01:48:35;;;;;;;10.55;6.13;;;18.90;99.90;;;;;;4947760;28;20027;-52
2023/08/26 01:51:01;;;;;;;11.63;6.50;;;18.90;99.90;;;;;;4948298;28;20088;-51
2023/08/26 01:53:27;;;;;;;7.28;6.30;;;18.80;99.90;;;;;;4948264;28;20046;-52
2023/08/26 01:55:52;;;;;;;6.55;5.78;;;18.80;99.90;;;;;;4948625;28;20032;-51
2023/08/26 01:58:18;;;;;;;8.55;6.60;;;18.80;99.90;;;;;;4948157;28;20031;-51
2023/08/26 02:00:43;;;;;;;10.93;7.45;;;18.80;99.90;;;;;;4948081;29;20455;-52
2023/08/26 02:03:09;;;;;;;9.70;7.32;;;18.80;99.90;;;;;;4948275;28;20015;-50
2023/08/26 02:05:34;;;;;;;6.82;6.13;;;18.80;99.90;;;;;;4948008;28;20489;-49
2023/08/26 02:08:00;;;;;;;7.07;5.97;;;18.80;99.90;;;;;;4947722;29;20023;-51
2023/08/26 02:10:25;;;;;;;9.05;6.95;;;18.80;99.90;;;;;;4948040;29;20055;-51
2023/08/26 02:12:51;;;;;;;9.02;6.47;;;18.70;99.90;;;;;;4948307;28;20065;-53
2023/08/26 02:15:16;;;;;;;8.15;6.60;;;18.80;99.90;;;;;;4947996;28;20035;-52
2023/08/26 02:17:42;;;;;;;10.10;6.85;;;18.80;99.90;;;;;;4947515;29;20045;-52
2023/08/26 02:20:08;;;;;;;13.95;7.18;;;18.70;99.90;;;;;;4945109;28;20504;-52
2023/08/26 02:22:33;;;;;;;8.10;6.57;;;18.70;99.90;;;;;;4949544;29;20042;-53
2023/08/26 02:24:59;;;;;;;9.43;7.55;;;18.70;99.90;;;;;;4946857;28;20445;-52
2023/08/26 02:27:24;;;;;;;11.48;6.55;;;18.70;99.90;;;;;;4947712;29;20024;-52
2023/08/26 02:29:50;;;;;;;11.07;7.28;;;18.70;99.90;;;;;;4951384;29;20046;-52
2023/08/26 02:32:15;;;;;;;9.02;6.68;;;18.70;99.90;;;;;;4951419;29;20023;-51
2023/08/26 02:34:41;;;;;;;8.02;6.85;;;18.60;99.90;;;;;;4950897;28;20031;-51
2023/08/26 02:37:06;;;;;;;7.18;6.03;;;18.70;99.90;;;;;;4951287;29;20058;-52
2023/08/26 02:39:32;;;;;;;17.27;8.50;;;18.70;99.90;;;;;;4951000;28;20046;-51
2023/08/26 02:41:57;;;;;;;20.00;8.98;;;18.70;99.90;;;;;;4951168;29;20547;-52
2023/08/26 02:44:23;;;;;;;9.52;7.90;;;18.70;99.90;;;;;;4951085;29;20039;-52
2023/08/26 02:46:48;;;;;;;10.25;7.90;;;18.70;99.90;;;;;;4950742;28;20439;-51
2023/08/26 02:49:14;;;;;;;8.40;7.55;;;18.70;99.90;;;;;;4944988;28;20039;-52
2023/08/26 02:51:39;;;;;;;12.95;8.13;;;18.70;99.90;;;;;;4939737;28;20110;-51
2023/08/26 02:54:05;;;;;;;11.35;8.80;;;18.80;99.90;;;;;;4946570;28;20106;-51
2023/08/26 02:56:30;;;;;;;11.45;8.52;;;18.70;99.90;;;;;;5028914;28;20032;-51
2023/08/26 02:58:56;;;;;;;9.18;7.78;;;18.80;99.90;;;;;;4945299;28;20484;-52
2023/08/26 03:01:21;;;;;;;10.45;7.53;;;18.70;99.90;;;;;;4943000;28;20103;-52
2023/08/26 03:03:47;;;;;;;8.18;7.07;;;18.70;99.90;;;;;;4946397;28;20037;-51
2023/08/26 03:06:13;;;;;;;8.63;7.13;;;18.70;99.90;;;;;;4950609;28;20100;-51
2023/08/26 03:08:39;;;;;;;10.20;7.78;;;18.70;99.90;;;;;;4950447;28;20030;-52
2023/08/26 03:11:07;;;;;;;14.45;10.15;;;18.70;99.90;;;;;;4950918;28;20027;-52
2023/08/26 03:13:33;;;;;;;11.18;9.80;;;18.70;99.90;;;;;;4950658;29;20026;-51
2023/08/26 03:16:07;;;;;;;15.43;9.93;;;18.70;99.90;;;;;;4950916;29;20084;-52
2023/08/26 03:18:33;;;;;;;11.80;9.48;;;18.70;99.90;;;;;;4946639;28;20075;-53
2023/08/26 03:21:06;;;;;;;12.63;10.00;;;18.70;99.90;;;;;;4950507;29;20051;-52
2023/08/26 03:23:32;;;;;;;13.20;9.40;;;18.70;99.90;;;;;;4950448;28;20394;-52
2023/08/26 03:25:57;;;;;;;12.02;9.63;;;18.70;99.90;;;;;;4950264;28;20027;-52
2023/08/26 03:28:23;;;;;;;17.23;10.43;;;18.80;99.90;;;;;;4949969;28;20435;-52
2023/08/26 03:30:48;;;;;;;18.85;12.80;;;18.80;99.90;;;;;;4949752;28;20027;-52
2023/08/26 03:33:14;;;;;;;14.27;11.65;;;18.80;99.90;;;;;;4949712;28;20027;-53
2023/08/26 03:35:39;;;;;;;19.08;12.10;;;18.80;99.90;;;;;;4943771;29;20035;-53
2023/08/26 03:38:05;;;;;;;15.88;11.38;;;18.80;99.90;;;;;;4939956;29;20477;-52
2023/08/26 03:40:31;;;;;;;17.52;12.23;;;18.80;99.90;;;;;;4942158;28;20039;-52
2023/08/26 03:42:56;;;;;;;18.30;12.52;;;18.80;99.90;;;;;;4940839;29;20038;-52
2023/08/26 03:45:22;;;;;;;20.13;12.63;;;18.80;99.90;;;;;;4942262;29;20129;-51
2023/08/26 03:47:48;;;;;;;16.60;11.98;;;18.80;99.90;;;;;;4949591;28;20043;-51
2023/08/26 03:50:13;;;;;;;18.10;12.25;;;18.80;99.90;;;;;;4950006;28;20023;-52
2023/08/26 03:52:39;;;;;;;16.52;11.35;;;18.80;99.90;;;;;;4950049;28;20066;-53
2023/08/26 03:55:05;;;;;;;17.90;11.63;;;18.80;99.90;;;;;;4950116;28;20011;-53
2023/08/26 03:57:31;;;;;;;22.27;14.27;;;18.80;99.90;;;;;;4949505;28;20447;-53
2023/08/26 03:59:57;;;;;;;21.50;12.82;;;18.80;99.90;;;;;;4949940;28;20335;-54
2023/08/26 04:02:23;;;;;;;18.90;12.60;;;18.90;99.90;;;;;;4943834;28;20138;-54
2023/08/26 04:04:48;;;;;;;20.52;14.05;;;18.90;99.90;;;;;;4940993;29;20102;-54
2023/08/26 04:07:14;;;;;;;20.02;15.27;;;18.90;99.90;;;;;;4940374;29;20062;-54
2023/08/26 04:09:40;;;;;;;19.27;13.93;;;18.90;99.90;;;;;;4940525;28;20035;-54
2023/08/26 04:12:06;;;;;;;19.70;13.40;;;18.90;99.90;;;;;;4938363;29;20020;-54
2023/08/26 04:14:31;;;;;;;15.73;12.45;;;18.90;99.90;;;;;;4940727;29;20066;-55
2023/08/26 04:16:57;;;;;;;21.05;14.07;;;18.90;99.90;;;;;;4941457;28;20041;-55
2023/08/26 04:19:23;;;;;;;21.02;14.15;;;18.90;99.90;;;;;;4941862;28;20103;-54
2023/08/26 04:21:48;;;;;;;20.63;13.77;;;18.90;99.90;;;;;;4940965;28;20042;-55
2023/08/26 04:24:14;;;;;;;24.48;15.65;;;18.90;99.90;;;;;;4940731;29;20370;-54
2023/08/26 04:26:39;;;;;;;24.02;16.27;;;18.90;99.90;;;;;;4950121;29;20038;-55
2023/08/26 04:29:05;;;;;;;20.58;15.00;;;19.00;99.90;;;;;;4946044;28;20422;-55
2023/08/26 04:31:31;;;;;;;23.17;17.25;;;19.00;99.90;;;;;;4945249;29;20059;-55
2023/08/26 04:33:56;;;;;;;21.40;15.65;;;19.00;99.90;;;;;;4945181;28;20027;-54
2023/08/26 04:36:22;;;;;;;20.42;15.63;;;19.10;99.90;;;;;;4943949;29;20031;-55
2023/08/26 04:38:47;;;;;;;19.75;14.15;;;19.10;99.90;;;;;;4949577;29;20110;-54
2023/08/26 04:41:14;;;;;;;21.35;15.82;;;19.10;99.90;;;;;;4950639;28;20024;-54
2023/08/26 04:43:40;;;;;;;18.60;14.10;;;19.10;99.90;;;;;;4940726;28;20030;-54
2023/08/26 04:46:06;;;;;;;17.60;14.10;;;19.10;99.90;;;;;;4930379;29;20536;-54
2023/08/26 04:48:31;;;;;;;20.05;15.35;;;19.20;99.90;;;;;;4929427;29;20035;-55
2023/08/26 04:50:57;;;;;;;21.88;15.15;;;19.20;99.90;;;;;;4930106;29;20023;-55
2023/08/26 04:53:23;;;;;;;26.92;17.58;;;19.20;99.90;;;;;;4930277;29;20031;-54
2023/08/26 04:55:50;;;;;;;22.08;17.17;;;19.20;99.90;;;;;;4930255;29;20027;-54
2023/08/26 04:58:16;;;;;;;23.77;16.77;;;19.20;99.90;;;;;;4935084;29;20073;-54
2023/08/26 05:00:41;;;;;;;26.38;17.90;;;19.20;99.90;;;;;;4938081;29;20450;-54
2023/08/26 05:03:07;;;;;;;20.90;15.27;;;19.20;99.90;;;;;;4942626;29;20019;-54
2023/08/26 05:05:33;;;;;;;21.35;15.48;;;19.20;99.90;;;;;;4945382;28;20254;-55
2023/08/26 05:07:59;;;;;;;19.65;14.82;;;19.30;99.90;;;;;;4944037;28;20016;-55
2023/08/26 05:10:24;;;;;;;20.88;16.45;;;19.30;99.90;;;;;;4944782;28;20496;-55
2023/08/26 05:12:49;;;;;;;23.60;16.90;;;19.30;99.90;;;;;;4948940;28;20106;-55
2023/08/26 05:15:15;;;;;;;27.00;18.13;;;19.30;99.90;;;;;;4949176;28;20027;-55
2023/08/26 05:17:41;;;;;;;18.73;14.82;;;19.30;99.90;;;;;;4948573;28;20031;-56
2023/08/26 05:20:07;;;;;;;23.65;14.80;;;19.30;99.90;;;;;;4948870;28;20026;-55
2023/08/26 05:22:32;;;;;;;22.05;16.05;;;19.30;99.90;;;;;;4946498;28;20118;-56
2023/08/26 05:24:58;;;;;;;28.77;18.38;;;19.30;99.90;;;;;;4936603;29;20166;-56
2023/08/26 05:27:23;;;;;;;22.48;17.10;;;19.30;99.90;;;;;;4935743;28;20499;-56
2023/08/26 05:29:49;;;;;;;28.17;20.50;;;19.30;99.90;;;;;;4947476;29;20749;-56
2023/08/26 05:32:15;;;;;;;35.47;20.00;;;19.30;99.90;;;;;;4944077;28;20027;-56
2023/08/26 05:34:40;;;;;;;28.13;17.80;;;19.40;99.90;;;;;;4946454;29;20114;-56
2023/08/26 05:37:06;;;;;;;22.92;17.25;;;19.40;99.90;;;;;;4948499;29;20024;-55
2023/08/26 05:39:31;;;;;;;24.98;18.73;;;19.40;99.90;;;;;;4948201;28;20484;-55
2023/08/26 05:41:57;;;;;;;27.98;17.77;;;19.40;99.90;;;;;;4948323;28;20024;-55
2023/08/26 05:44:22;;;;;;;27.13;18.50;;;19.50;99.90;;;;;;4948400;28;20031;-55
2023/08/26 05:46:48;;;;;;;26.27;18.92;;;19.50;99.90;;;;;;4948403;28;20023;-55
2023/08/26 05:49:14;;;;;;;21.30;15.40;;;19.60;99.90;;;;;;4947843;28;20500;-55
2023/08/26 05:51:39;;;;;;;20.38;15.15;;;19.70;99.90;;;;;;4948310;28;20035;-56
2023/08/26 05:54:05;;;;;;;25.52;17.38;;;19.70;99.90;;;;;;4947855;28;20046;-56
2023/08/26 05:56:31;;;;;;;23.83;16.98;;;19.80;99.90;;;;;;4951628;28;20073;-55
2023/08/26 05:58:56;;;;;;;24.90;17.77;;;19.80;99.90;;;;;;4951183;28;20492;-55
2023/08/26 06:01:22;;;;;;;26.17;17.40;;;19.90;99.90;;;;;;4952003;28;20039;-55
2023/08/26 06:03:47;;;;;;;28.33;19.65;;;19.90;99.90;;;;;;4951872;29;20023;-55
2023/08/26 06:06:13;;;;;;;29.23;19.20;;;19.90;99.90;;;;;;4945990;28;20086;-54
2023/08/26 06:08:38;;;;;;;33.08;21.50;;;20.00;99.90;;;;;;4939451;28;20505;-54
2023/08/26 06:11:04;;;;;;;24.45;17.35;;;19.90;99.90;;;;;;4944543;28;20074;-54
2023/08/26 06:13:29;;;;;;;25.92;19.05;;;19.90;99.90;;;;;;4943825;28;20023;-54
2023/08/26 06:15:55;;;;;;;32.97;21.25;;;19.90;99.90;;;;;;4941573;28;20031;-54
2023/08/26 06:18:22;;;;;;;29.25;19.65;;;19.90;99.90;;;;;;4940599;28;20011;-54
2023/08/26 06:20:49;;;;;;;38.75;20.35;;;19.90;99.90;;;;;;4943026;28;20485;-54
2023/08/26 06:23:15;;;;;;;24.13;18.15;;;20.00;99.90;;;;;;4951150;28;20054;-54
2023/08/26 06:25:53;;;;;;;28.13;19.75;;;20.00;99.90;;;;;;4951199;28;20024;-55
2023/08/26 06:28:19;;;;;;;27.25;19.88;;;20.10;99.90;;;;;;4946413;28;20031;-54
2023/08/26 06:30:45;;;;;;;27.73;20.73;;;20.10;99.90;;;;;;4949228;29;20023;-54
2023/08/26 06:33:11;;;;;;;28.02;19.30;;;20.20;99.90;;;;;;4951104;28;20015;-54
2023/08/26 06:35:36;;;;;;;32.25;20.88;;;20.30;99.90;;;;;;4950817;29;20100;-54
2023/08/26 06:38:02;;;;;;;31.10;19.50;;;20.40;99.90;;;;;;4950558;29;20042;-54
2023/08/26 06:40:31;;;;;;;23.80;16.88;;;20.40;99.90;;;;;;4950800;28;20100;-54
2023/08/26 06:42:57;;;;;;;35.88;22.00;;;20.50;99.90;;;;;;4949247;29;20031;-54
2023/08/26 06:45:22;;;;;;;25.52;17.67;;;20.50;99.90;;;;;;4946484;29;20023;-54
2023/08/26 06:47:48;;;;;;;27.65;19.85;;;20.60;99.90;;;;;;4949348;29;20098;-55
2023/08/26 06:50:14;;;;;;;22.30;16.15;;;20.70;99.90;;;;;;4950994;29;20023;-55
2023/08/26 06:52:39;;;;;;;33.17;22.42;;;20.80;99.90;;;;;;4950608;29;20020;-55
2023/08/26 06:55:08;;;;;;;31.27;20.35;;;20.70;99.90;;;;;;4950978;28;20033;-54
2023/08/26 06:57:35;;;;;;;26.17;17.95;;;20.70;99.90;;;;;;4950700;28;21249;-55
2023/08/26 07:00:01;;;;;;;31.13;21.88;;;20.70;99.90;;;;;;4950593;28;20023;-54
2023/08/26 07:02:27;;;;;;;30.13;20.20;;;20.70;99.90;;;;;;4950705;28;20119;-54
2023/08/26 07:04:52;;;;;;;29.52;20.98;;;20.70;99.90;;;;;;4950003;29;20112;-54
2023/08/26 07:07:18;;;;;;;31.50;19.70;;;20.70;99.90;;;;;;4943581;29;20085;-54
2023/08/26 07:09:43;;;;;;;22.83;17.42;;;20.80;99.90;;;;;;4950334;29;20098;-54
2023/08/26 07:12:09;;;;;;;29.80;20.25;;;20.90;99.90;;;;;;4950575;28;20015;-54
2023/08/26 07:14:34;;;;;;;28.63;19.05;;;20.90;99.90;;;;;;4950527;28;20031;-54
2023/08/26 07:17:00;;;;;;;22.67;17.30;;;20.90;99.90;;;;;;4950153;29;20118;-54
2023/08/26 07:19:26;;;;;;;22.92;16.42;;;20.90;99.90;;;;;;4940382;28;20027;-54
2023/08/26 07:21:51;;;;;;;24.00;18.20;;;20.90;99.90;;;;;;4944239;28;20035;-54
2023/08/26 07:24:17;;;;;;;29.15;20.50;;;20.80;99.90;;;;;;4944463;28;20012;-52
2023/08/26 07:26:42;;;;;;;30.67;20.60;;;20.70;99.90;;;;;;4943421;28;20382;-52
2023/08/26 07:29:08;;;;;;;25.35;18.58;;;20.70;99.90;;;;;;4946389;28;20031;-53
2023/08/26 07:31:34;;;;;;;26.13;18.67;;;20.70;99.90;;;;;;4946299;28;20021;-53
2023/08/26 07:33:59;;;;;;;24.15;17.30;;;20.70;99.90;;;;;;4949097;28;20046;-52
2023/08/26 07:36:25;;;;;;;23.33;16.15;;;20.70;99.90;;;;;;4936212;28;20086;-52
2023/08/26 07:38:50;;;;;;;21.13;14.55;;;20.70;99.90;;;;;;4931334;29;20024;-53
2023/08/26 07:41:18;;;;;;;25.08;17.90;;;20.80;99.90;;;;;;4931378;29;20048;-53
2023/08/26 07:43:44;;;;;;;26.73;14.18;;;20.80;99.90;;;;;;4934439;29;20480;-53
2023/08/26 07:46:09;;;;;;;17.63;12.90;;;20.80;99.90;;;;;;4946389;28;20040;-53
2023/08/26 07:48:35;;;;;;;21.13;15.32;;;20.80;99.90;;;;;;4944658;28;20023;-53
2023/08/26 07:51:00;;;;;;;15.23;13.02;;;20.80;99.90;;;;;;4949504;28;20438;-53
2023/08/26 07:53:26;;;;;;;15.63;11.75;;;20.90;99.90;;;;;;4944311;29;20023;-52
2023/08/26 07:55:51;;;;;;;19.90;13.85;;;20.90;99.90;;;;;;4935961;29;20106;-52
2023/08/26 07:58:17;;;;;;;18.38;12.95;;;21.00;99.90;;;;;;4940952;28;20067;-52
2023/08/26 08:00:42;;;;;;;15.05;11.52;;;20.90;99.90;;;;;;4945374;29;20071;-52
2023/08/26 08:03:08;;;;;;;17.50;11.43;;;20.80;99.90;;;;;;4941214;28;20028;-51
2023/08/26 08:05:33;;;;;;;18.73;12.73;;;21.00;99.90;;;;;;4945636;29;20031;-50
2023/08/26 08:07:59;;;;;;;18.35;11.77;;;21.00;99.90;;;;;;4949300;29;20041;-54
2023/08/26 08:10:24;;;;;;;18.17;12.50;;;21.00;99.90;;;;;;4949675;29;20023;-54
2023/08/26 08:12:50;;;;;;;16.60;11.23;;;21.10;99.90;;;;;;4949666;28;20432;-56
2023/08/26 08:15:15;;;;;;;13.93;9.57;;;21.20;99.90;;;;;;4941807;28;20023;-55
2023/08/26 08:17:41;;;;;;;15.18;10.90;;;21.60;99.90;;;;;;4949027;29;20035;-55
2023/08/26 08:20:07;;;;;;;17.90;10.52;;;22.40;99.90;;;;;;4949534;29;20477;-55
2023/08/26 08:22:35;;;;;;;14.77;9.98;;;23.30;99.90;;;;;;4949458;28;20244;-56
2023/08/26 08:25:01;;;;;;;11.48;9.65;;;24.10;99.90;;;;;;4949565;28;20452;-55
2023/08/26 08:27:26;;;;;;;8.27;6.40;;;24.60;99.90;;;;;;4949562;28;20073;-55
2023/08/26 08:29:52;;;;;;;7.65;4.93;;;23.90;98.70;;;;;;4943829;29;20050;-55
2023/08/26 08:32:17;;;;;;;5.15;4.65;;;23.30;98.10;;;;;;4949540;28;20393;-55
2023/08/26 08:34:43;;;;;;;11.27;5.35;;;22.70;99.10;;;;;;4938093;29;20110;-55
2023/08/26 08:37:08;;;;;;;13.00;5.10;;;22.40;98.30;;;;;;4936559;29;20451;-55
2023/08/26 08:39:36;;;;;;;9.45;3.83;;;23.00;97.80;;;;;;4937534;28;20472;-55
2023/08/26 08:42:02;;;;;;;8.27;3.28;;;24.10;96.00;;;;;;4935196;28;20481;-55
2023/08/26 08:44:32;;;;;;;3.70;3.10;;;24.90;92.90;;;;;;4937581;28;20027;-55
2023/08/26 08:46:58;;;;;;;4.85;2.42;;;26.00;90.70;;;;;;4937336;29;20016;-55
2023/08/26 08:49:24;;;;;;;4.38;2.10;;;27.10;86.50;;;;;;4939081;29;20150;-55
2023/08/26 08:51:51;;;;;;;6.40;2.25;;;27.90;83.80;;;;;;4935806;29;20121;-55
2023/08/26 08:54:17;;;;;;;6.93;2.05;;;28.30;78.00;;;;;;4942297;29;20035;-55
2023/08/26 08:56:43;;;;;;;5.40;3.05;;;28.10;78.80;;;;;;4936892;29;20599;-55
2023/08/26 08:59:11;;;;;;;2.33;1.70;;;28.50;77.00;;;;;;4937085;28;20489;-55
2023/08/26 09:01:37;;;;;;;3.45;2.00;;;29.30;74.90;;;;;;4938972;29;20138;-55
2023/08/26 09:04:06;;;;;;;3.70;1.70;;;29.40;73.10;;;;;;4937809;29;20122;-55
2023/08/26 09:06:33;;;;;;;5.37;1.80;;;29.90;72.30;;;;;;4939131;29;20077;-56
2023/08/26 09:08:59;;;;;;;2.38;1.40;;;30.20;68.60;;;;;;4937049;28;20047;-57
2023/08/26 09:11:27;;;;;;;5.07;1.73;;;30.90;67.60;;;;;;4938513;28;20507;-56
2023/08/26 09:13:52;;;;;;;2.90;1.60;;;31.10;68.30;;;;;;4942884;28;20023;-55
2023/08/26 09:16:28;;;;;;;3.17;1.45;;;31.80;66.60;;;;;;4942378;29;20024;-56
2023/08/26 09:18:57;;;;;;;3.30;1.58;;;31.80;65.00;;;;;;4936771;28;20105;-57
2023/08/26 09:21:22;;;;;;;3.05;1.20;;;31.60;65.80;;;;;;4936365;29;20027;-56
2023/08/26 09:23:50;;;;;;;2.65;1.52;;;30.80;66.10;;;;;;4936873;28;20397;-56
2023/08/26 09:26:16;;;;;;;1.83;1.45;;;30.30;65.20;;;;;;4957654;28;20058;-54
2023/08/26 09:28:50;;;;;;;1.88;1.15;;;30.70;67.00;;;;;;4937840;28;20027;-55
2023/08/26 09:31:16;;;;;;;5.93;1.60;;;31.70;65.70;;;;;;4938326;28;20511;-56
2023/08/26 09:33:41;;;;;;;5.57;1.27;;;31.80;63.60;;;;;;4940707;28;20035;-55
2023/08/26 09:36:07;;;;;;;6.18;1.40;;;32.70;64.50;;;;;;4939758;28;20046;-55
2023/08/26 09:38:49;;;;;;;7.75;1.38;;;32.50;60.70;;;;;;4939602;29;20050;-55
2023/08/26 09:41:22;;;;;;;1.50;1.00;;;32.00;60.40;;;;;;4938894;29;20023;-55
2023/08/26 09:43:48;;;;;;;3.63;1.40;;;31.70;59.00;;;;;;4932303;28;20414;-56
2023/08/26 09:46:20;;;;;;;1.48;1.10;;;31.40;58.80;;;;;;4937816;28;20110;-55
2023/08/26 09:48:49;;;;;;;2.55;1.08;;;31.40;59.00;;;;;;4938343;28;20022;-57
2023/08/26 09:51:33;;;;;;;2.63;1.40;;;31.90;60.50;;;;;;4938713;28;20103;-55
2023/08/26 09:53:59;;;;;;;3.95;1.33;;;31.90;56.30;;;;;;4946994;29;20024;-55
2023/08/26 09:56:26;;;;;;;5.55;1.20;;;32.10;57.90;;;;;;4948424;28;20029;-54
2023/08/26 09:58:53;;;;;;;4.65;1.50;;;32.00;58.00;;;;;;4948080;28;20434;-55
2023/08/26 10:01:23;;;;;;;2.80;1.08;;;32.00;58.20;;;;;;4944250;28;20027;-55
2023/08/26 10:04:08;;;;;;;2.40;1.17;;;32.20;56.40;;;;;;4945509;28;20308;-55
2023/08/26 10:06:45;;;;;;;1.92;1.02;;;32.70;59.60;;;;;;4948187;28;20405;-56
2023/08/26 10:10:09;;;;;;;3.63;1.38;;;33.00;55.30;;;;;;4935620;28;20033;-55
2023/08/26 10:12:40;;;;;;;4.55;1.30;;;33.40;56.20;;;;;;5015746;28;20077;-54
2023/08/26 10:15:15;;;;;;;4.15;1.40;;;33.70;57.60;;;;;;4938032;28;20044;-55
2023/08/26 10:17:44;;;;;;;3.85;1.55;;;33.80;55.80;;;;;;4935282;29;20074;-54
2023/08/26 10:20:11;;;;;;;2.23;1.00;;;33.30;55.00;;;;;;4934423;29;20512;-54
2023/08/26 10:22:37;;;;;;;4.97;1.05;;;33.70;53.50;;;;;;4938194;29;20436;-54
2023/08/26 10:25:05;;;;;;;7.82;1.25;;;33.60;54.40;;;;;;4936220;28;20023;-55
2023/08/26 10:27:31;;;;;;;1.90;1.33;;;33.80;54.50;;;;;;4937829;28;20581;-55
2023/08/26 10:29:58;;;;;;;5.85;1.33;;;33.80;55.30;;;;;;4950764;28;20023;-56
2023/08/26 10:32:27;;;;;;;2.72;1.23;;;32.80;53.00;;;;;;4938783;28;20049;-56
2023/08/26 10:34:58;;;;;;;2.88;1.05;;;31.30;55.10;;;;;;4933308;29;20055;-54
2023/08/26 10:37:25;;;;;;;3.72;1.35;;;30.90;58.00;;;;;;4938170;28;20030;-54
2023/08/26 10:39:51;;;;;;;2.95;1.25;;;31.30;56.40;;;;;;4932953;28;20024;-54
2023/08/26 10:42:18;;;;;;;2.75;0.98;;;31.00;56.40;;;;;;4934358;28;20114;-55
2023/08/26 10:45:10;;;;;;;2.58;1.15;;;31.70;58.30;;;;;;4936144;28;20109;-56
2023/08/26 10:47:38;;;;;;;2.08;1.15;;;31.60;56.50;;;;;;4935859;28;20416;-55
2023/08/26 10:50:20;;;;;;;3.92;1.35;;;31.30;57.20;;;;;;4938846;28;20264;-54
2023/08/26 10:52:51;;;;;;;1.80;1.20;;;29.50;58.10;;;;;;4939867;29;20076;-54
2023/08/26 10:55:22;;;;;;;2.35;1.38;;;28.10;58.80;;;;;;4938282;28;20020;-57
2023/08/26 10:58:17;;;;;;;3.85;1.38;;;27.50;60.80;;;;;;4936966;28;20032;-54
2023/08/26 11:00:45;;;;;;;2.58;1.00;;;28.00;59.60;;;;;;4942750;29;20054;-55
2023/08/26 11:03:12;;;;;;;2.25;1.17;;;28.80;61.00;;;;;;4950412;29;20085;-55
2023/08/26 11:05:41;;;;;;;5.18;1.20;;;30.00;59.60;;;;;;4950736;28;20081;-55
2023/08/26 11:08:07;;;;;;;4.20;1.10;;;29.70;58.90;;;;;;4950277;28;20069;-55
2023/08/26 11:10:35;;;;;;;2.42;0.93;;;30.60;59.40;;;;;;4950759;29;20263;-55
2023/08/26 11:13:01;;;;;;;2.80;1.40;;;31.90;56.20;;;;;;4950878;28;20019;-55
2023/08/26 11:15:41;;;;;;;2.85;1.23;;;31.60;55.50;;;;;;4950692;28;20039;-55
2023/08/26 11:18:08;;;;;;;3.35;1.30;;;32.20;56.40;;;;;;4948237;28;20477;-55
2023/08/26 11:20:34;;;;;;;5.43;1.23;;;32.50;55.90;;;;;;4950677;28;20039;-55
2023/08/26 11:23:04;;;;;;;1.75;1.10;;;32.80;54.90;;;;;;4950548;28;20031;-54
2023/08/26 11:25:30;;;;;;;3.28;1.35;;;32.90;56.20;;;;;;4950181;28;20048;-55
2023/08/26 11:28:07;;;;;;;4.07;1.40;;;32.90;55.90;;;;;;4946001;28;20459;-55
2023/08/26 11:30:45;;;;;;;2.08;1.30;;;32.10;55.10;;;;;;4945632;29;20521;-54
2023/08/26 11:33:16;;;;;;;2.30;1.10;;;31.10;56.50;;;;;;4949752;29;20028;-55
2023/08/26 11:35:42;;;;;;;8.13;1.58;;;29.20;57.10;;;;;;4949800;28;20035;-54
2023/08/26 11:38:08;;;;;;;2.20;0.90;;;28.10;60.30;;;;;;4947314;28;20266;-54
2023/08/26 11:40:34;;;;;;;3.00;1.50;;;26.80;62.00;;;;;;4945627;28;20028;-54
2023/08/26 11:43:14;;;;;;;3.40;1.40;;;26.30;62.60;;;;;;4948317;28;20027;-54
2023/08/26 11:45:41;;;;;;;3.30;1.27;;;25.70;62.90;;;;;;4950023;28;20080;-54
2023/08/26 11:48:12;;;;;;;3.70;1.27;;;25.20;64.00;;;;;;4948988;28;20031;-54
2023/08/26 11:50:39;;;;;;;4.47;1.52;;;25.70;64.20;;;;;;4948471;28;20034;-52
2023/08/26 11:53:06;;;;;;;3.22;1.27;;;26.30;63.80;;;;;;4947818;28;20031;-52
2023/08/26 11:55:32;;;;;;;2.92;1.40;;;26.90;62.10;;;;;;4948573;28;20322;-54
2023/08/26 11:58:00;;;;;;;2.03;1.30;;;26.80;62.60;;;;;;4948406;28;20034;-51
2023/08/26 12:00:26;;;;;;;2.40;1.50;;;27.20;62.00;;;;;;4959820;28;20385;-52
2023/08/26 12:02:55;;;;;;;2.40;1.45;;;27.10;61.60;;;;;;4946143;29;20039;-51
2023/08/26 12:05:21;;;;;;;3.47;1.30;;;27.50;64.10;;;;;;4949397;28;20065;-53
2023/08/26 12:07:51;;;;;;;1.75;1.00;;;28.20;62.50;;;;;;4949138;29;20054;-52
2023/08/26 12:10:18;;;;;;;3.80;1.27;;;27.90;59.90;;;;;;4945514;29;20546;-51
2023/08/26 12:12:45;;;;;;;2.58;1.02;;;28.10;62.20;;;;;;4945525;28;20559;-52
2023/08/26 12:15:13;;;;;;;4.65;1.40;;;27.60;61.00;;;;;;4950177;28;20034;-51
2023/08/26 12:17:49;;;;;;;4.47;1.85;;;27.00;62.20;;;;;;4947131;28;20031;-51
2023/08/26 12:20:25;;;;;;;4.05;2.00;;;27.00;66.00;;;;;;4948290;28;20070;-50
2023/08/26 12:22:52;;;;;;;2.72;1.85;;;26.50;64.60;;;;;;4949776;28;20106;-50
2023/08/26 12:25:28;;;;;;;2.67;1.30;;;26.10;65.40;;;;;;4949609;28;20034;-51
2023/08/26 12:28:17;;;;;;;4.13;1.67;;;25.40;66.70;;;;;;4949096;28;20074;-52
2023/08/26 12:30:44;;;;;;;6.03;1.65;;;25.90;67.30;;;;;;4949827;28;20092;-52
2023/08/26 12:33:10;;;;;;;2.45;1.45;;;25.60;66.40;;;;;;4949662;29;20020;-51
2023/08/26 12:35:37;;;;;;;3.67;1.70;;;25.60;66.90;;;;;;4949440;28;20035;-52
2023/08/26 12:38:03;;;;;;;4.10;1.80;;;25.90;66.40;;;;;;4948883;28;20385;-52